Time;durP1;ratioP1;P1;durP2;ratioP2;P2;SDS_P1;SDS_P2;PMS_P1;PMS_P2;Temp;Humidity;BMP_temperature;BMP_pressure;BME280_temperature;BME280_humidity;BME280_pressure;Samples;Min_cycle;Max_cycle;Signal;HPM_P1;HPM_P2
2023/11/07 00:02:24;;;;;;;0.60;0.20;;;;;;;9.88;100.00;100986.02;105343;1255;73245;-55
2023/11/07 00:04:52;;;;;;;0.40;0.30;;;;;;;9.88;100.00;100986.20;105315;1256;67136;-54
2023/11/07 00:07:23;;;;;;;4.10;0.40;;;;;;;9.87;100.00;100988.21;105180;1261;72697;-52
2023/11/07 00:09:50;;;;;;;0.70;0.20;;;;;;;9.84;100.00;100988.83;106789;1255;61825;-54
2023/11/07 00:12:18;;;;;;;0.60;0.20;;;;;;;9.83;100.00;100982.59;105268;1261;59554;-53
2023/11/07 00:14:45;;;;;;;0.90;0.20;;;;;;;9.82;100.00;100983.14;105220;1259;73116;-54
2023/11/07 00:17:13;;;;;;;1.80;0.20;;;;;;;9.81;100.00;100980.48;108641;1255;65684;-55
2023/11/07 00:19:40;;;;;;;0.30;0.20;;;;;;;9.79;100.00;100976.93;108613;1257;72703;-53
2023/11/07 00:22:08;;;;;;;0.30;0.20;;;;;;;9.78;100.00;100977.16;108746;1260;60484;-52
2023/11/07 00:24:35;;;;;;;0.40;0.20;;;;;;;9.77;100.00;100983.45;108728;1255;57916;-52
2023/11/07 00:27:04;;;;;;;1.60;0.30;;;;;;;9.78;100.00;100978.58;108613;1256;73547;-52
2023/11/07 00:29:31;;;;;;;0.70;0.40;;;;;;;9.79;100.00;100981.60;108746;1255;66812;-53
2023/11/07 00:31:59;;;;;;;1.50;0.30;;;;;;;9.79;100.00;100975.85;108759;1256;72722;-53
2023/11/07 00:34:27;;;;;;;0.60;0.30;;;;;;;9.80;100.00;100973.33;108664;1255;60089;-53
2023/11/07 00:36:55;;;;;;;1.90;0.30;;;;;;;9.79;100.00;100972.45;108854;1255;60094;-53
2023/11/07 00:39:22;;;;;;;0.60;0.30;;;;;;;9.78;100.00;100972.84;108719;1256;73156;-53
2023/11/07 00:41:49;;;;;;;0.40;0.30;;;;;;;9.76;100.00;100970.40;108778;1255;66141;-53
2023/11/07 00:44:18;;;;;;;0.50;0.30;;;;;;;9.74;100.00;100965.42;108658;1260;73055;-53
2023/11/07 00:46:45;;;;;;;4.40;0.50;;;;;;;9.72;100.00;100966.00;108622;1259;62681;-54
2023/11/07 00:49:13;;;;;;;1.90;0.10;;;;;;;9.71;100.00;100961.73;108751;1257;58891;-53
2023/11/07 00:51:40;;;;;;;0.50;0.30;;;;;;;9.70;100.00;100962.48;108852;1255;73138;-53
2023/11/07 00:54:10;;;;;;;1.90;0.30;;;;;;;9.69;100.00;100963.23;108690;1255;66603;-54
2023/11/07 00:56:37;;;;;;;0.50;0.30;;;;;;;9.68;100.00;100964.32;108649;1256;71533;-54
2023/11/07 00:59:04;;;;;;;4.90;0.30;;;;;;;9.69;100.00;100964.50;108770;1255;58863;-53
2023/11/07 01:01:32;;;;;;;0.60;0.30;;;;;;;9.69;100.00;100964.50;108846;1255;60089;-53
2023/11/07 01:03:59;;;;;;;1.10;0.30;;;;;;;9.68;100.00;100968.63;107426;1259;71023;-52
2023/11/07 01:06:27;;;;;;;1.00;0.30;;;;;;;9.67;100.00;100962.02;106405;1256;66285;-52
2023/11/07 01:08:54;;;;;;;0.40;0.30;;;;;;;9.66;100.00;100962.23;106315;1256;72464;-53
2023/11/07 01:11:22;;;;;;;0.40;0.30;;;;;;;9.65;100.00;100956.70;105237;1257;61158;-53
2023/11/07 01:13:49;;;;;;;1.10;0.20;;;;;;;9.62;100.00;100957.83;105171;1261;59699;-54
2023/11/07 01:16:16;;;;;;;0.60;0.30;;;;;;;9.59;100.00;100955.06;105315;1257;72999;-54
2023/11/07 01:18:44;;;;;;;1.00;0.30;;;;;;;9.57;100.00;100952.97;105238;1255;66608;-53
2023/11/07 01:21:11;;;;;;;0.40;0.20;;;;;;;9.53;100.00;100953.06;105143;1255;72044;-54
2023/11/07 01:23:40;;;;;;;0.40;0.30;;;;;;;9.50;100.00;100947.59;105247;1261;62137;-53
2023/11/07 01:26:09;;;;;;;0.80;0.40;;;;;;;9.47;100.00;100946.20;104972;1261;59609;-55
2023/11/07 01:28:36;;;;;;;0.40;0.20;;;;;;;9.45;100.00;100943.02;108615;1255;70909;-56
2023/11/07 01:31:06;;;;;;;1.10;0.40;;;;;;;9.45;100.00;100943.92;105245;1261;67702;-54
2023/11/07 01:33:34;;;;;;;0.60;0.30;;;;;;;9.44;100.00;100945.75;104935;1261;73129;-55
2023/11/07 01:36:02;;;;;;;0.60;0.30;;;;;;;9.44;100.00;100942.38;105729;1256;59728;-53
2023/11/07 01:38:30;;;;;;;1.20;0.40;;;;;;;9.43;100.00;100942.92;105280;1261;59632;-54
2023/11/07 01:40:58;;;;;;;2.20;0.30;;;;;;;9.43;100.00;100946.88;105134;1259;71767;-52
2023/11/07 01:43:26;;;;;;;0.50;0.30;;;;;;;9.42;100.00;100945.64;105398;1261;65771;-54
2023/11/07 01:45:54;;;;;;;1.30;0.30;;;;;;;9.40;100.00;100953.02;108718;1256;72747;-54
2023/11/07 01:48:25;;;;;;;3.50;0.30;;;;;;;9.39;100.00;100947.48;107276;1256;60142;-50
2023/11/07 01:50:53;;;;;;;0.40;0.30;;;;;;;9.36;100.00;100953.12;105137;1264;60670;-51
2023/11/07 01:53:21;;;;;;;0.70;0.40;;;;;;;9.32;100.00;100946.05;105181;1260;71788;-53
2023/11/07 01:55:48;;;;;;;0.70;0.30;;;;;;;9.30;100.00;100944.13;108607;1255;68552;-54
2023/11/07 01:58:16;;;;;;;0.30;0.30;;;;;;;9.26;100.00;100938.86;108724;1255;72518;-54
2023/11/07 02:00:44;;;;;;;0.60;0.30;;;;;;;9.25;100.00;100938.89;108605;1258;61846;-54
2023/11/07 02:03:11;;;;;;;0.50;0.40;;;;;;;9.22;100.00;100940.02;108689;1255;61108;-54
2023/11/07 02:05:41;;;;;;;0.50;0.30;;;;;;;9.20;100.00;100940.77;108722;1255;75538;-54
2023/11/07 02:08:09;;;;;;;0.50;0.20;;;;;;;9.20;100.00;100943.83;108785;1259;67012;-54
2023/11/07 02:10:37;;;;;;;0.50;0.30;;;;;;;9.19;100.00;100940.27;108739;1261;73092;-54
2023/11/07 02:13:05;;;;;;;0.40;0.20;;;;;;;9.19;100.00;100941.34;108633;1255;59455;-54
2023/11/07 02:15:35;;;;;;;0.70;0.40;;;;;;;9.19;100.00;100945.82;108504;1261;60573;-54
2023/11/07 02:18:02;;;;;;;0.50;0.30;;;;;;;9.19;100.00;100942.62;105268;1256;73130;-53
2023/11/07 02:20:31;;;;;;;1.40;0.30;;;;;;;9.18;100.00;100938.35;104972;1255;67164;-54
2023/11/07 02:23:12;;;;;;;0.50;0.30;;;;;;;9.17;100.00;100943.20;105299;1259;72730;-54
2023/11/07 02:25:39;;;;;;;0.60;0.40;;;;;;;9.16;100.00;100957.20;104922;1261;60153;-55
2023/11/07 02:28:07;;;;;;;2.00;0.30;;;;;;;9.14;100.00;100946.67;105044;1258;60093;-54
2023/11/07 02:30:34;;;;;;;4.00;0.30;;;;;;;9.11;100.00;100954.95;105068;1256;72402;-53
2023/11/07 02:33:04;;;;;;;0.40;0.30;;;;;;;9.08;100.00;100946.63;104427;1256;67117;-54
2023/11/07 02:35:33;;;;;;;0.60;0.30;;;;;;;9.05;100.00;100947.76;104816;1261;71924;-52
2023/11/07 02:38:00;;;;;;;1.50;0.30;;;;;;;9.03;100.00;100948.16;106185;1256;60459;-54
2023/11/07 02:40:28;;;;;;;1.00;0.30;;;;;;;9.02;100.00;100944.62;105142;1258;59677;-51
2023/11/07 02:42:55;;;;;;;2.10;0.30;;;;;;;9.01;100.00;100947.16;105175;1257;73114;-53
2023/11/07 02:45:22;;;;;;;0.90;0.30;;;;;;;9.01;100.00;100948.41;105176;1261;67261;-52
2023/11/07 02:47:50;;;;;;;2.20;0.30;;;;;;;9.01;100.00;100951.45;105252;1260;70422;-52
2023/11/07 02:50:17;;;;;;;1.30;0.40;;;;;;;9.01;100.00;100951.80;105129;1260;59692;-53
2023/11/07 02:52:45;;;;;;;0.50;0.30;;;;;;;9.02;100.00;100958.23;105018;1261;59679;-54
2023/11/07 02:55:12;;;;;;;2.30;0.30;;;;;;;9.01;100.00;100959.69;105069;1256;71845;-54
2023/11/07 02:57:40;;;;;;;1.00;0.60;;;;;;;8.99;100.00;100959.00;105070;1257;66823;-53
2023/11/07 03:00:10;;;;;;;1.20;0.30;;;;;;;8.98;100.00;100958.14;105181;1257;71489;-54
2023/11/07 03:02:37;;;;;;;0.40;0.30;;;;;;;8.96;100.00;100960.15;105493;1257;61047;-54
2023/11/07 03:05:06;;;;;;;1.30;0.30;;;;;;;8.94;100.00;100958.76;105046;1256;59506;-55
2023/11/07 03:07:33;;;;;;;2.60;0.30;;;;;;;8.92;100.00;100960.98;108858;1256;71872;-54
2023/11/07 03:10:01;;;;;;;4.20;0.40;;;;;;;8.91;100.00;100960.98;108756;1255;67855;-56
2023/11/07 03:12:29;;;;;;;3.10;0.30;;;;;;;8.91;100.00;100964.56;108763;1259;72754;-56
2023/11/07 03:14:56;;;;;;;0.60;0.40;;;;;;;8.91;100.00;100965.27;108858;1255;61171;-56
2023/11/07 03:17:24;;;;;;;1.30;0.30;;;;;;;8.93;100.00;100971.86;108718;1257;60015;-56
2023/11/07 03:19:53;;;;;;;1.70;0.20;;;;;;;8.95;100.00;100971.80;108729;1258;73120;-56
2023/11/07 03:22:21;;;;;;;0.80;0.30;;;;;;;8.97;100.00;100975.88;108724;1258;67151;-55
2023/11/07 03:24:48;;;;;;;0.40;0.20;;;;;;;8.99;100.00;100976.20;108790;1257;71503;-54
2023/11/07 03:27:16;;;;;;;1.90;0.40;;;;;;;9.00;100.00;100979.58;108671;1257;60473;-55
2023/11/07 03:29:43;;;;;;;0.40;0.30;;;;;;;9.02;100.00;100985.96;108651;1261;60114;-54
2023/11/07 03:32:11;;;;;;;2.40;0.30;;;;;;;9.02;100.00;100993.66;108720;1258;72870;-54
2023/11/07 03:34:40;;;;;;;0.50;0.30;;;;;;;9.01;100.00;101000.50;108665;1261;67548;-54
2023/11/07 03:37:07;;;;;;;1.60;0.30;;;;;;;9.00;100.00;101005.89;108687;1257;71471;-55
2023/11/07 03:39:35;;;;;;;0.50;0.30;;;;;;;8.99;100.00;101000.20;108547;1257;60524;-56
2023/11/07 03:42:04;;;;;;;0.50;0.30;;;;;;;8.98;100.00;101001.65;108763;1257;60010;-55
2023/11/07 03:44:34;;;;;;;0.50;0.20;;;;;;;8.97;100.00;101005.41;108652;1258;72678;-55
2023/11/07 03:47:03;;;;;;;0.80;0.20;;;;;;;8.97;100.00;101010.98;108711;1257;68901;-55
2023/11/07 03:49:31;;;;;;;1.20;0.30;;;;;;;8.97;100.00;101009.00;108679;1258;71470;-55
2023/11/07 03:51:59;;;;;;;1.40;0.30;;;;;;;8.98;100.00;101008.81;108793;1258;60740;-54
2023/11/07 03:54:26;;;;;;;0.50;0.30;;;;;;;8.98;100.00;101003.42;108719;1258;58850;-54
2023/11/07 03:56:53;;;;;;;0.40;0.30;;;;;;;8.99;100.00;101008.79;106546;1261;74200;-53
2023/11/07 03:59:21;;;;;;;0.30;0.30;;;;;;;8.99;100.00;101010.05;105048;1258;66714;-54
2023/11/07 04:01:48;;;;;;;0.50;0.30;;;;;;;8.98;100.00;101008.98;105171;1261;72703;-54
2023/11/07 04:04:15;;;;;;;0.50;0.30;;;;;;;8.96;100.00;101004.36;105047;1263;60699;-52
2023/11/07 04:06:43;;;;;;;0.60;0.30;;;;;;;8.92;100.00;101002.67;105056;1261;60615;-52
2023/11/07 04:09:10;;;;;;;0.40;0.30;;;;;;;8.88;100.00;100999.35;105274;1261;73917;-48
2023/11/07 04:11:37;;;;;;;0.80;0.30;;;;;;;8.84;100.00;100996.39;105208;1261;65680;-53
2023/11/07 04:14:05;;;;;;;0.60;0.30;;;;;;;8.81;100.00;100999.86;105180;1262;71465;-53
2023/11/07 04:16:33;;;;;;;2.20;0.30;;;;;;;8.78;100.00;101001.00;107794;1257;60424;-52
2023/11/07 04:19:00;;;;;;;1.50;0.20;;;;;;;8.75;100.00;101001.44;105068;1261;60419;-54
2023/11/07 04:21:28;;;;;;;0.20;0.20;;;;;;;8.72;100.00;101003.63;106944;1260;73755;-54
2023/11/07 04:23:55;;;;;;;0.50;0.30;;;;;;;8.71;100.00;101001.67;105222;1255;66395;-53
2023/11/07 04:26:22;;;;;;;0.60;0.40;;;;;;;8.70;100.00;101000.98;105327;1261;74816;-54
2023/11/07 04:28:50;;;;;;;2.30;0.30;;;;;;;8.69;100.00;101003.32;105174;1256;60553;-53
2023/11/07 04:31:17;;;;;;;0.70;0.20;;;;;;;8.69;100.00;101003.52;104994;1256;60317;-53
2023/11/07 04:33:45;;;;;;;0.60;0.30;;;;;;;8.69;100.00;101004.21;104989;1257;72643;-53
2023/11/07 04:36:16;;;;;;;0.50;0.30;;;;;;;8.68;100.00;101004.96;105098;1255;67530;-53
2023/11/07 04:38:44;;;;;;;1.00;0.40;;;;;;;8.67;100.00;101005.00;106924;1259;73149;-53
2023/11/07 04:41:15;;;;;;;0.40;0.40;;;;;;;8.65;100.00;101001.82;105156;1260;61028;-53
2023/11/07 04:43:44;;;;;;;0.70;0.40;;;;;;;8.63;100.00;101011.86;107002;1258;60313;-53
2023/11/07 04:46:12;;;;;;;0.90;0.30;;;;;;;8.60;100.00;101017.29;106139;1258;72605;-53
2023/11/07 04:48:40;;;;;;;2.30;0.40;;;;;;;8.57;100.00;101013.80;105155;1255;64825;-53
2023/11/07 04:51:08;;;;;;;1.80;0.40;;;;;;;8.54;100.00;101009.18;106316;1260;71998;-54
2023/11/07 04:53:37;;;;;;;0.50;0.30;;;;;;;8.52;100.00;101007.08;105307;1260;61666;-53
2023/11/07 04:56:05;;;;;;;0.50;0.30;;;;;;;8.51;100.00;101005.88;105119;1257;60609;-50
2023/11/07 04:58:33;;;;;;;1.00;0.50;;;;;;;8.49;100.00;101009.13;105278;1256;73189;-53
2023/11/07 05:01:21;;;;;;;0.70;0.30;;;;;;;8.48;100.00;101025.60;105351;1260;66931;-53
2023/11/07 05:03:49;;;;;;;0.70;0.30;;;;;;;8.49;100.00;101017.36;105277;1261;71480;-52
2023/11/07 05:06:19;;;;;;;0.60;0.30;;;;;;;8.49;100.00;101016.11;105030;1256;62621;-53
2023/11/07 05:08:46;;;;;;;0.90;0.40;;;;;;;8.49;100.00;101017.00;105241;1262;60416;-53
2023/11/07 05:11:17;;;;;;;0.50;0.30;;;;;;;8.50;100.00;101018.41;105002;1261;72643;-53
2023/11/07 05:13:45;;;;;;;2.30;0.30;;;;;;;8.51;100.00;101028.94;105194;1260;66169;-53
2023/11/07 05:16:12;;;;;;;2.20;0.40;;;;;;;8.52;100.00;101028.91;106931;1261;71438;-54
2023/11/07 05:18:39;;;;;;;3.00;0.40;;;;;;;8.52;100.00;101029.09;104971;1257;60531;-54
2023/11/07 05:21:07;;;;;;;2.20;0.40;;;;;;;8.51;100.00;101028.55;105142;1259;60643;-53
2023/11/07 05:23:35;;;;;;;1.60;0.40;;;;;;;8.51;100.00;101030.55;105312;1261;73955;-55
2023/11/07 05:26:03;;;;;;;0.50;0.40;;;;;;;8.51;100.00;101031.79;105117;1258;65646;-54
2023/11/07 05:28:30;;;;;;;2.90;0.50;;;;;;;8.50;100.00;101034.88;106748;1260;71430;-54
2023/11/07 05:30:57;;;;;;;2.70;0.40;;;;;;;8.49;100.00;101035.42;105243;1261;61715;-54
2023/11/07 05:33:25;;;;;;;1.10;0.40;;;;;;;8.49;100.00;101040.27;104634;1261;60489;-54
2023/11/07 05:35:53;;;;;;;1.40;0.40;;;;;;;8.49;100.00;101046.67;104378;1261;76069;-54
2023/11/07 05:38:20;;;;;;;3.90;0.50;;;;;;;8.51;100.00;101048.60;108767;1257;66824;-55
2023/11/07 05:40:48;;;;;;;0.70;0.40;;;;;;;8.53;100.00;101049.27;108547;1261;73009;-55
2023/11/07 05:43:16;;;;;;;3.70;0.50;;;;;;;8.58;100.00;101053.49;108704;1257;61836;-54
2023/11/07 05:45:44;;;;;;;0.70;0.40;;;;;;;8.61;100.00;101059.86;108713;1256;59905;-55
2023/11/07 05:48:11;;;;;;;0.90;0.40;;;;;;;8.67;100.00;101065.67;108794;1257;72583;-53
2023/11/07 05:50:39;;;;;;;1.30;0.50;;;;;;;8.71;100.00;101068.26;108803;1259;67335;-53
2023/11/07 05:53:08;;;;;;;1.10;0.50;;;;;;;8.76;100.00;101076.22;108845;1256;72764;-52
2023/11/07 05:55:36;;;;;;;5.00;0.60;;;;;;;8.81;100.00;101081.31;108763;1256;59206;-53
2023/11/07 05:58:03;;;;;;;1.30;0.50;;;;;;;8.85;100.00;101083.55;108772;1257;59982;-53
2023/11/07 06:00:33;;;;;;;1.50;0.40;;;;;;;8.89;100.00;101092.78;105146;1262;72603;-54
2023/11/07 06:03:01;;;;;;;0.60;0.40;;;;;;;8.92;100.00;101105.77;108809;1257;65902;-54
2023/11/07 06:05:28;;;;;;;1.40;0.30;;;;;;;8.95;100.00;101109.47;108808;1256;70142;-54
2023/11/07 06:07:57;;;;;;;0.90;0.50;;;;;;;9.00;100.00;101115.84;108816;1257;59869;-54
2023/11/07 06:10:25;;;;;;;1.40;0.40;;;;;;;9.03;100.00;101122.19;108867;1255;60267;-53
2023/11/07 06:12:52;;;;;;;2.60;0.40;;;;;;;9.07;100.00;101122.31;108700;1260;74237;-53
2023/11/07 06:15:19;;;;;;;2.50;0.40;;;;;;;9.12;100.00;101124.70;108784;1257;65470;-55
2023/11/07 06:17:47;;;;;;;3.80;0.50;;;;;;;9.18;100.00;101131.75;108817;1258;71475;-54
2023/11/07 06:20:18;;;;;;;0.70;0.40;;;;;;;9.26;100.00;101138.93;108738;1256;58831;-54
2023/11/07 06:22:45;;;;;;;2.80;0.40;;;;;;;9.33;100.00;101143.45;108789;1260;58855;-53
2023/11/07 06:25:14;;;;;;;1.70;0.50;;;;;;;9.38;100.00;101152.09;108718;1257;73856;-53
2023/11/07 06:27:42;;;;;;;2.00;0.40;;;;;;;9.44;100.00;101158.78;108822;1258;66983;-54
2023/11/07 06:30:10;;;;;;;0.70;0.40;;;;;;;9.48;100.00;101159.77;108703;1261;71547;-53
2023/11/07 06:32:37;;;;;;;1.90;0.50;;;;;;;9.51;100.00;101163.64;108723;1256;61528;-53
2023/11/07 06:35:05;;;;;;;0.90;0.40;;;;;;;9.56;100.00;101166.95;108757;1259;58792;-54
2023/11/07 06:37:33;;;;;;;0.40;0.30;;;;;;;9.61;100.00;101168.99;108767;1255;72997;-54
2023/11/07 06:40:13;;;;;;;1.30;0.70;;;;;;;9.66;100.00;101176.05;108821;1255;66020;-54
2023/11/07 06:42:43;;;;;;;0.70;0.40;;;;;;;9.72;100.00;101188.27;108792;1257;72746;-54
2023/11/07 06:45:13;;;;;;;1.10;0.40;;;;;;;9.79;100.00;101194.05;108761;1257;60479;-54
2023/11/07 06:47:45;;;;;;;3.30;0.50;;;;;;;9.86;100.00;101202.31;108621;1255;61071;-53
2023/11/07 06:50:14;;;;;;;2.70;0.40;;;;;;;9.93;100.00;101214.35;108680;1256;73950;-52
2023/11/07 06:52:43;;;;;;;1.00;0.40;;;;;;;10.01;100.00;101225.64;105659;1261;66872;-53
2023/11/07 06:55:13;;;;;;;0.50;0.30;;;;;;;10.07;100.00;101233.58;104931;1260;72803;-53
2023/11/07 06:57:41;;;;;;;1.10;0.40;;;;;;;10.11;100.00;101243.34;108673;1256;60102;-53
2023/11/07 07:00:09;;;;;;;1.20;0.50;;;;;;;10.14;100.00;101246.52;108712;1257;60053;-53
2023/11/07 07:02:38;;;;;;;1.00;0.50;;;;;;;10.17;100.00;101251.66;108209;1256;74836;-53
2023/11/07 07:05:12;;;;;;;0.90;0.40;;;;;;;10.20;100.00;101253.58;104925;1261;65381;-53
2023/11/07 07:07:41;;;;;;;2.60;0.60;;;;;;;10.23;100.00;101257.27;107099;1257;72680;-53
2023/11/07 07:10:10;;;;;;;0.90;0.50;;;;;;;10.27;100.00;101256.83;108729;1257;61082;-53
2023/11/07 07:12:38;;;;;;;0.60;0.30;;;;;;;10.33;100.00;101259.73;107170;1260;60515;-53
2023/11/07 07:15:06;;;;;;;2.60;1.20;;;;;;;10.39;100.00;101261.55;104975;1257;72563;-53
2023/11/07 07:17:33;;;;;;;0.70;0.40;;;;;;;10.46;100.00;101266.61;108770;1258;65762;-53
2023/11/07 07:20:03;;;;;;;2.40;0.50;;;;;;;10.51;100.00;101274.92;108697;1258;72673;-55
2023/11/07 07:22:34;;;;;;;2.20;0.40;;;;;;;10.57;100.00;101284.81;108702;1257;60197;-54
2023/11/07 07:25:05;;;;;;;2.40;0.40;;;;;;;10.63;100.00;101290.95;106503;1257;60642;-53
2023/11/07 07:27:34;;;;;;;1.00;0.50;;;;;;;10.68;100.00;101289.60;108518;1260;74015;-54
2023/11/07 07:30:01;;;;;;;1.70;0.50;;;;;;;10.72;100.00;101297.02;105348;1260;67176;-53
2023/11/07 07:32:29;;;;;;;2.40;0.40;;;;;;;10.76;100.00;101310.76;105846;1261;72095;-53
2023/11/07 07:34:56;;;;;;;1.20;0.60;;;;;;;10.81;100.00;101313.50;105059;1260;60887;-54
2023/11/07 07:37:24;;;;;;;0.60;0.50;;;;;;;10.86;100.00;101325.60;105088;1257;60576;-54
2023/11/07 07:39:52;;;;;;;1.00;0.50;;;;;;;10.89;100.00;101333.40;105045;1257;73936;-54
2023/11/07 07:42:22;;;;;;;3.70;0.50;;;;;;;10.94;100.00;101339.59;105104;1258;65833;-54
2023/11/07 07:44:50;;;;;;;2.10;0.50;;;;;;;11.01;100.00;101350.02;105272;1261;72748;-54
2023/11/07 07:47:18;;;;;;;0.70;0.40;;;;;;;11.08;100.00;101356.67;107454;1258;60419;-54
2023/11/07 07:49:46;;;;;;;1.00;0.40;;;;;;;11.13;100.00;101363.55;105024;1260;60361;-55
2023/11/07 07:52:15;;;;;;;0.90;0.40;;;;;;;11.19;100.00;101371.66;104995;1260;73805;-54
2023/11/07 07:54:43;;;;;;;0.50;0.30;;;;;;;11.25;100.00;101380.12;105622;1260;65110;-53
2023/11/07 07:57:31;;;;;;;0.90;0.40;;;;;;;11.31;100.00;101399.19;106336;1257;72657;-53
2023/11/07 07:59:59;;;;;;;1.30;0.50;;;;;;;11.37;100.00;101399.41;105094;1262;60490;-54
2023/11/07 08:02:27;;;;;;;1.70;0.60;;;;;;;11.44;100.00;101408.05;105005;1260;60436;-53
2023/11/07 08:04:56;;;;;;;0.50;0.30;;;;;;;11.50;100.00;101419.03;105228;1260;72659;-55
2023/11/07 08:07:24;;;;;;;0.80;0.40;;;;;;;11.56;100.00;101428.57;106113;1257;65811;-53
2023/11/07 08:09:51;;;;;;;4.30;0.40;;;;;;;11.62;100.00;101429.14;104994;1260;71876;-54
2023/11/07 08:12:21;;;;;;;0.60;0.40;;;;;;;11.68;100.00;101437.79;105123;1261;60514;-55
2023/11/07 08:14:48;;;;;;;2.40;0.40;;;;;;;11.73;100.00;101449.55;105064;1260;60427;-54
2023/11/07 08:17:17;;;;;;;1.70;0.40;;;;;;;11.78;100.00;101460.41;105031;1260;73175;-53
2023/11/07 08:19:46;;;;;;;1.80;0.30;;;;;;;11.83;100.00;101469.61;105275;1257;66438;-53
2023/11/07 08:22:13;;;;;;;2.40;0.30;;;;;;;11.86;100.00;101482.48;105249;1257;71435;-51
2023/11/07 08:24:41;;;;;;;1.30;0.50;;;;;;;11.89;100.00;101482.96;105240;1261;60834;-52
2023/11/07 08:27:10;;;;;;;1.90;0.40;;;;;;;11.93;100.00;101488.96;105164;1257;60407;-52
2023/11/07 08:29:38;;;;;;;1.40;0.30;;;;;;;11.97;100.00;101498.59;105242;1261;73952;-52
2023/11/07 08:32:07;;;;;;;2.80;0.40;;;;;;;12.03;100.00;101509.40;105248;1257;66411;-51
2023/11/07 08:34:36;;;;;;;6.30;0.50;;;;;;;12.07;100.00;101521.34;105282;1260;72827;-49
2023/11/07 08:37:04;;;;;;;1.40;0.40;;;;;;;12.09;100.00;101525.06;105785;1258;60601;-54
2023/11/07 08:39:40;;;;;;;1.10;0.30;;;;;;;12.12;100.00;101536.67;105222;1257;61057;-51
2023/11/07 08:42:08;;;;;;;3.30;0.40;;;;;;;12.16;100.00;101537.69;105311;1260;73886;-53
2023/11/07 08:44:36;;;;;;;1.50;0.40;;;;;;;12.18;100.00;101539.41;105332;1260;65879;-51
2023/11/07 08:47:04;;;;;;;0.70;0.30;;;;;;;12.22;100.00;101541.13;108648;1257;75023;-52
2023/11/07 08:49:31;;;;;;;0.90;0.40;;;;;;;12.28;100.00;101552.28;105674;1260;60346;-52
2023/11/07 08:51:59;;;;;;;1.00;0.40;;;;;;;12.35;100.00;101563.27;105162;1257;60628;-54
2023/11/07 08:54:26;;;;;;;1.20;0.50;;;;;;;12.39;100.00;101568.54;105245;1261;75512;-53
2023/11/07 08:56:53;;;;;;;1.40;0.50;;;;;;;12.46;100.00;101580.23;105192;1260;67391;-53
2023/11/07 08:59:21;;;;;;;1.20;0.30;;;;;;;12.51;100.00;101591.43;105310;1262;73840;-52
2023/11/07 09:01:51;;;;;;;1.40;0.30;;;;;;;12.59;100.00;101598.08;105263;1257;60458;-51
2023/11/07 09:04:20;;;;;;;1.10;0.40;;;;;;;12.66;100.00;101610.13;105281;1257;60381;-54
2023/11/07 09:06:47;;;;;;;2.70;0.40;;;;;;;12.73;100.00;101622.36;105236;1262;75319;-52
2023/11/07 09:09:14;;;;;;;2.00;0.40;;;;;;;12.78;100.00;101624.18;105182;1260;66058;-54
2023/11/07 09:11:43;;;;;;;1.60;0.40;;;;;;;12.80;100.00;101633.52;108782;1255;74921;-51
2023/11/07 09:14:14;;;;;;;0.70;0.30;;;;;;;12.81;100.00;101637.80;108795;1260;58967;-52
2023/11/07 09:16:41;;;;;;;0.80;0.40;;;;;;;12.84;100.00;101640.23;108776;1256;62170;-54
2023/11/07 09:19:10;;;;;;;1.20;0.50;;;;;;;12.88;100.00;101644.64;108715;1256;73941;-52
2023/11/07 09:21:38;;;;;;;0.90;0.30;;;;;;;12.90;100.00;101648.37;108769;1255;67299;-52
2023/11/07 09:24:06;;;;;;;0.80;0.30;;;;;;;12.91;100.00;101649.79;108728;1255;72922;-53
2023/11/07 09:26:34;;;;;;;1.00;0.30;;;;;;;12.93;100.00;101651.52;108759;1257;58914;-52
2023/11/07 09:29:01;;;;;;;1.20;0.30;;;;;;;12.98;100.00;101657.53;108805;1255;58305;-55
2023/11/07 09:31:28;;;;;;;1.50;0.30;;;;;;;13.02;100.00;101658.14;108779;1255;73146;-52
2023/11/07 09:33:56;;;;;;;1.20;0.30;;;;;;;13.08;100.00;101667.33;108813;1255;66245;-52
2023/11/07 09:36:24;;;;;;;2.00;0.50;;;;;;;13.16;100.00;101666.77;105667;1260;75412;-53
2023/11/07 09:38:52;;;;;;;0.40;0.20;;;;;;;13.22;100.00;101663.88;108705;1256;60566;-53
2023/11/07 09:41:20;;;;;;;1.60;0.30;;;;;;;13.28;100.00;101670.19;108758;1256;58842;-54
2023/11/07 09:43:47;;;;;;;1.60;0.30;;;;;;;13.33;100.00;101677.27;108655;1256;74135;-53
2023/11/07 09:46:15;;;;;;;2.10;0.20;;;;;;;13.37;100.00;101685.98;108687;1256;69439;-54
2023/11/07 09:48:42;;;;;;;1.90;0.20;;;;;;;13.38;100.00;101690.46;108477;1257;72835;-55
2023/11/07 09:51:10;;;;;;;1.10;0.30;;;;;;;13.41;100.00;101699.77;108277;1255;59547;-52
2023/11/07 09:53:39;;;;;;;1.00;0.40;;;;;;;13.45;100.00;101707.75;105260;1260;60349;-52
2023/11/07 09:56:10;;;;;;;0.50;0.30;;;;;;;13.50;100.00;101721.33;108583;1257;72604;-54
2023/11/07 09:58:38;;;;;;;6.00;0.60;;;;;;;13.54;100.00;101730.04;108716;1256;69266;-52
2023/11/07 10:01:07;;;;;;;0.50;0.30;;;;;;;13.58;100.00;101732.98;105644;1261;71874;-52
2023/11/07 10:03:35;;;;;;;0.50;0.20;;;;;;;13.60;100.00;101742.67;105058;1260;60976;-50
2023/11/07 10:06:06;;;;;;;0.70;0.30;;;;;;;13.61;100.00;101750.73;105221;1255;60377;-51
2023/11/07 10:08:33;;;;;;;0.40;0.20;;;;;;;13.64;100.00;101765.08;106826;1256;72692;-49
2023/11/07 10:11:11;;;;;;;0.50;0.30;;;;;;;13.67;100.00;101766.29;105141;1260;67433;-52
2023/11/07 10:13:39;;;;;;;0.40;0.30;;;;;;;13.67;100.00;101780.35;105138;1260;71500;-51
2023/11/07 10:16:07;;;;;;;0.40;0.20;;;;;;;13.66;100.00;101776.95;105443;1258;60552;-51
2023/11/07 10:18:47;;;;;;;0.50;0.30;;;;;;;13.69;100.00;101784.08;105362;1260;60506;-52
2023/11/07 10:21:29;;;;;;;3.40;0.30;;;;;;;13.70;100.00;101791.46;105682;1260;72712;-50
2023/11/07 10:23:57;;;;;;;1.20;0.30;;;;;;;13.69;100.00;101792.75;107170;1255;66934;-54
2023/11/07 10:26:25;;;;;;;1.40;0.30;;;;;;;13.71;100.00;101784.19;104992;1256;71487;-52
2023/11/07 10:29:15;;;;;;;0.70;0.30;;;;;;;13.74;100.00;101783.58;105171;1256;60544;-50
2023/11/07 10:31:57;;;;;;;;;;;;;;;13.74;100.00;101809.00;107976;1255;60518;-50
2023/11/07 10:34:26;;;;;;;0.70;0.20;;;;;;;13.74;100.00;101802.69;105329;1257;73755;-50
2023/11/07 10:36:54;;;;;;;1.90;0.20;;;;;;;13.74;100.00;101791.68;107430;1258;65667;-54
2023/11/07 10:39:25;;;;;;;1.40;0.20;;;;;;;13.77;100.00;101784.95;105364;1256;72768;-54
2023/11/07 10:41:56;;;;;;;1.20;0.30;;;;;;;13.80;100.00;101793.48;105228;1257;60457;-51
2023/11/07 10:44:29;;;;;;;0.60;0.30;;;;;;;13.84;100.00;101801.31;105071;1263;60445;-52
2023/11/07 10:46:57;;;;;;;0.60;0.20;;;;;;;13.87;100.00;101801.05;105590;1260;74009;-53
2023/11/07 10:49:25;;;;;;;2.20;0.70;;;;;;;13.88;100.00;101796.14;105203;1260;67163;-51
2023/11/07 10:51:52;;;;;;;4.00;0.30;;;;;;;13.90;100.00;101795.16;105900;1260;71583;-53
2023/11/07 10:54:21;;;;;;;0.40;0.20;;;;;;;13.94;100.00;101799.41;105120;1261;60618;-52
2023/11/07 10:56:51;;;;;;;1.00;0.20;;;;;;;13.96;100.00;101800.42;105099;1256;60587;-52
2023/11/07 10:59:28;;;;;;;0.60;0.20;;;;;;;13.96;100.00;101807.27;106100;1256;74870;-52
2023/11/07 11:01:57;;;;;;;0.40;0.20;;;;;;;13.95;100.00;101810.53;105165;1260;70825;-54
2023/11/07 11:04:25;;;;;;;0.40;0.20;;;;;;;13.95;100.00;101800.97;106378;1261;72738;-52
2023/11/07 11:06:57;;;;;;;1.80;0.20;;;;;;;13.97;100.00;101797.48;105081;1258;60576;-54
2023/11/07 11:09:26;;;;;;;1.90;0.20;;;;;;;14.00;100.00;101806.98;105113;1262;60510;-54
2023/11/07 11:11:54;;;;;;;0.70;0.10;;;;;;;14.00;100.00;101802.81;104988;1256;73849;-53
2023/11/07 11:14:23;;;;;;;0.60;0.20;;;;;;;14.01;100.00;101801.18;105077;1261;65816;-54
2023/11/07 11:16:51;;;;;;;0.80;0.20;;;;;;;14.01;100.00;101802.06;106590;1256;72133;-54
2023/11/07 11:19:24;;;;;;;0.30;0.20;;;;;;;14.03;100.00;101802.95;105250;1256;60896;-53
2023/11/07 11:22:09;;;;;;;0.20;0.20;;;;;;;14.01;100.00;101807.85;106341;1257;60004;-51